ADDS METAR Data INFO
IDs: Format: Raw Decoded Include TAF

Data at: 1535 UTC 25 Feb 2018

KOSU 251453Z 25007KT 10SM FEW020 08/05 A2993 RMK AO2 SLP137 60000 T00830050 51048
KOSU 251353Z 27011KT 10SM CLR 08/06 A2990 RMK AO2 SLP127 T00780056
KOSU 251253Z COR 27020G26KT 10SM FEW020 09/06 A2985 RMK AO2 PK WND 27029/1203 RAE16B39E48 SLP111 P0000 T00890061
KOSU 251153Z 27020G28KT 10SM -RA SCT065 11/08 A2978 RMK AO2 PK WND 28038/1117 RAB15E32B51 SLP086 P0000 60009 70184 T01110083 10150 20111 53042
KOSU 251129Z AUTO 27019G31KT 10SM -RA FEW022 SCT030 BKN070 11/09 A2976 RMK AO2 PK WND 28038/1117 RAB15 P0000 T01110094
KOSU 251122Z AUTO 27022G38KT 10SM -RA SCT020 BKN029 BKN045 12/09 A2975 RMK AO2 PK WND 28038/1117 RAB15 P0000 T01170094
KOSU 251053Z AUTO 23013G21KT 10SM SCT026 BKN060 15/13 A2971 RMK AO2 SLP059 T01500128
KOSU 251027Z AUTO 22018G25KT 10SM FEW022 SCT027 15/13 A2969 RMK AO2 T01500128
KOSU 250953Z AUTO 21015G26KT 10SM BKN027 OVC046 15/13 A2968 RMK AO2 PK WND 21026/0950 SLP049 T01500128
KOSU 250944Z AUTO 21019G25KT 10SM BKN027 OVC047 15/13 A2968 RMK AO2 T01500128
KOSU 250853Z AUTO 20014KT 10SM FEW020 SCT033 SCT120 14/13 A2965 RMK AO2 WSHFT 0752 SLP041 60009 T01440133 55016
KOSU 250806Z AUTO 28011KT 10SM SCT018 OVC110 13/13 A2965 RMK AO2 WSHFT 0752 T01330133
KOSU 250753Z AUTO 18019G25KT 10SM FEW095 OVC110 14/13 A2961 RMK AO2 RAE31 SLP027 P0000 T01390133
KOSU 250724Z AUTO 20013G21KT 7SM -RA SCT008 BKN060 OVC090 13/13 A2966 RMK AO2 P0000 T01280128
KOSU 250653Z AUTO 13009KT 6SM -RA BR OVC006 12/12 A2965 RMK AO2 CIG 004V010 SLP039 P0009 T01170117
KOSU 250645Z AUTO 13004KT 4SM RA BR BKN006 OVC011 12/12 A2967 RMK AO2 PRESFR P0008 T01220122
KOSU 250632Z AUTO 24007KT 8SM -RA FEW005 OVC010 12/12 A2972 RMK AO2 CIG 007V014 P0006 T01220122
KOSU 250620Z AUTO 20010KT 7SM -RA BKN005 BKN012 OVC017 12/12 A2971 RMK AO2 CIG 003V010 P0005 T01220122
KOSU 250553Z AUTO 17006KT 5SM -RA BR OVC004 11/11 A2970 RMK AO2 SLP060 P0008 60126 T01110111 10111 20094 56030
KOSU 250549Z AUTO 20009KT 6SM -RA BR OVC004 11/11 A2971 RMK AO2 CIG 003V008 P0007
KOSU 250527Z AUTO 12011KT 5SM -RA BR BKN005 OVC075 11/11 A2971 RMK AO2 CIG 004V010 PRESFR P0006 T01060106
KOSU 250509Z AUTO 13009KT 4SM RA BR BKN004 OVC008 10/10 A2973 RMK AO2 PRESFR P0005 T01000100
KOSU 250453Z AUTO 13004KT 2 1/2SM RA BR OVC004 10/10 A2977 RMK AO2 CIG 003V009 SLP081 P0023 T01000100 401060072
KOSU 250416Z AUTO 10011KT 3SM RA BR BKN003 BKN010 OVC024 09/09 A2977 RMK AO2 P0012 T00940094
KOSU 250410Z AUTO 09010KT 2 1/2SM RA BR BKN005 BKN022 OVC050 09/09 A2977 RMK AO2 PRESFR P0010 T00940094
KOSU 250403Z AUTO 08009KT 2SM +RA BR SCT005 BKN010 OVC023 09/09 A2979 RMK AO2 P0008 T00940094
KOSU 250353Z 08007KT 3SM +RA BR BKN007 BKN018 OVC027 09/09 A2980 RMK AO2 SLP091 P0042 T00940094
KOSU 250301Z 13009KT 2SM +RA BR BKN005 BKN016 OVC035 09/09 A2986 RMK AO2 P0008 T00940094
KOSU 250253Z 13005KT 3SM RA BR BKN005 BKN017 OVC024 09/09 A2986 RMK AO2 CIG 004V008 SLP113 P0020 60053 T00940094 58022
KOSU 250226Z 12008KT 4SM RA BR OVC006 09/09 A2986 RMK AO2 P0009 T00940094
KOSU 250153Z 10007KT 2 1/2SM +RA BR OVC007 09/09 A2988 RMK AO2 SLP120 P0018 T00940094
KOSU 250100Z 11011KT 4SM RA BR OVC008 09/09 A2991 RMK AO2 PRESFR P0003 T00940094
KOSU 250053Z 12011KT 4SM RA BR SCT008 BKN049 OVC070 09/09 A2993 RMK AO2 SLP138 P0015 T00940094
KOSU 250013Z 11010KT 5SM -RA BR SCT008 BKN049 OVC070 09/09 A2992 RMK AO2 P0004 T00940094
KOSU 242353Z 11011KT 4SM RA BR FEW012 SCT035 OVC075 09/09 A2993 RMK AO2 PRESFR SLP138 P0008 60009 T00940094 10106 20083 58025
KOSU 242344Z 10007KT 7SM -RA SCT013 BKN035 OVC080 09/09 A2995 RMK AO2 P0006 T00940094
KOSU 242253Z 12007KT 8SM -RA OVC014 10/09 A3000 RMK AO2 RAB2157E12B33 SLP160 P0001 T01000089
KOSU 242226Z 10007KT 10SM OVC014 10/09 A2999 RMK AO2 RAB2157E12 P0000 T01000089
KOSU 242153Z 09008KT 10SM OVC015 10/09 A3000 RMK AO2 SLP161 T01000089
KOSU 242145Z 09008KT 10SM OVC015 10/08 A3000 RMK AO2 T01000083
KOSU 242053Z 08007KT 10SM OVC013 11/09 A3000 RMK AO2 SLP162 60000 T01060089 55026
KOSU 241953Z 10013G18KT 10SM OVC013 10/09 A2999 RMK AO2 RAB05E16 SLP156 P0000 T01000089
KOSU 241853Z 08009KT 10SM OVC009 09/09 A3003 RMK AO2 CIG 007V012 SLP170 T00940089
KOSU 241753Z 07008KT 10SM BKN007 OVC012 09/08 A3008 RMK AO2 RAE46 SLP189 P0004 60040 T00890083 10089 20072 58016
KOSU 241653Z 05007KT 6SM -RA BR FEW008 BKN060 OVC090 08/08 A3013 RMK AO2 SLP205 P0006 T00830078
KOSU 241553Z 01008KT 5SM -RA BR SCT008 BKN070 OVC080 08/08 A3013 RMK AO2 SLP206 P0005 T00830078
KOSU 241453Z 05007KT 2SM RA BR SCT007 BKN050 OVC070 08/08 A3013 RMK AO2 SLP205 P0014 60025 T00780078 56012
KOSU 241422Z 07007KT 2 1/2SM RA BR FEW006 OVC065 08/08 A3014 RMK AO2 P0006 T00780078
KOSU 241353Z 07008KT 2SM RA BR OVC060 08/08 A3013 RMK AO2 SLP206 P0008 T00780078
KOSU 241320Z 05008KT 3SM -RA BR BKN015 OVC080 07/07 A3013 RMK AO2 PRESFR P0003 T00720072
KOSU 241253Z 05005KT 2 1/2SM -RA BR BKN015 OVC060 07/07 A3016 RMK AO2 RAB1157 SLP213 P0003 T00720072
KOSU 241228Z 02005KT 5SM -RA BR BKN015 OVC060 07/07 A3017 RMK AO2 RAB1157 P0000 T00720072
KOSU 241153Z 35006KT 6SM BR OVC014 07/07 A3017 RMK AO2 RAE19 SLP217 P0001 60001 70016 T00720072 10094 20072 50006
KOSU 241053Z AUTO 33003KT 7SM -RA OVC013 08/07 A3017 RMK AO2 SLP218 P0000 T00780072
KOSU 241020Z AUTO 01008KT 8SM -RA OVC010 08/07 A3016 RMK AO2 CIG 007V012 P0000 T00780072
KOSU 240953Z AUTO 02006KT 8SM -RA OVC007 08/08 A3017 RMK AO2 SLP216 P0000 T00780078
KOSU 240910Z AUTO 02004KT 10SM -RA OVC009 08/08 A3018 RMK AO2 P0000 T00830078
KOSU 240853Z AUTO 02007KT 10SM -RA OVC010 08/08 A3015 RMK AO2 RAE06B20 SLP210 P0000 60000 T00830078 58012
KOSU 240813Z AUTO 36012KT 10SM BKN010 OVC090 08/07 A3016 RMK AO2 RAE06 P0000 T00830072
KOSU 240753Z AUTO 36009KT 9SM -RA OVC009 09/08 A3017 RMK AO2 RAB49 CIG 009V012 PRESFR SLP218 P0000 T00890083
KOSU 240653Z AUTO 36006KT 10SM BKN010 OVC015 09/09 A3018 RMK AO2 SLP219 T00940089
KOSU 240553Z AUTO 33005KT 10SM BKN011 OVC019 09/09 A3019 RMK AO2 SLP223 T00940089 10144 20094 58003
KOSU 240453Z AUTO 33006KT 10SM BKN010 OVC021 11/09 A3020 RMK AO2 SLP225 T01060094 401610056
KOSU 240353Z 33009KT 10SM OVC021 11/10 A3019 RMK AO2 SLP225 T01110100